Terminal Aerodrome Forecast
Issued by NWS

Home | Current Version | Previous Version | Text Only | Print | Product List | Glossary Off
Versions: 1 2 3 4 5 6 7 8 9 10 11 12 13 14 15 16 17 18 19 20 21

380
FTUS43 KGRB 222332
TAFCWA
TAF
KCWA 222332Z 2300/2324 30005KT 3SM BR OVC003
     FM230200 30004KT 1SM -DZ BR OVC003
     FM230500 VRB03KT 1/4SM FG OVC002
     FM231500 32004KT 1SM BR OVC003
     FM231700 33005KT 3SM BR OVC006
     FM232000 31005KT 4SM BR OVC010=

USA.gov is the U.S. government's official web portal to all federal, state and local government web resources and services.